Terminal Aerodrome Forecast
Issued by NWS Cleveland, OH

Home | Current Version | Previous Version | Graphics & Text | Print | Product List | Glossary On
Versions: 1 2 3 4 5 6 7 8 9 10 11 12 13 14 15 16 17 18 19 20
000
FTUS41 KCLE 172340
TAFERI
TAF
KERI 172340Z 1800/1824 17010KT P6SM OVC200
     FM180500 18015G25KT P6SM VCSH OVC200 WS020/20040KT
     FM181000 18015G25KT 6SM -SHRA BR OVC070 WS020/21040KT
      TEMPO 1810/1812 4SM RA BR OVC020
     FM181200 19012G20KT 4SM SHRA BR VCTS OVC015CB
      TEMPO 1812/1816 1SM -TSRA BR OVC007CB
     FM181600 20015G25KT 5SM -SHRA BR VCTS OVC007CB
     FM181900 21020G30KT 3SM SHRA BR VCTS OVC003CB=

USA.gov is the U.S. government's official web portal to all federal, state and local government web resources and services.